createdAt,value
2022-12-26T00:00:31.833Z,-3.53
2022-12-26T00:02:58.701Z,-3.52
2022-12-26T00:05:25.483Z,-3.51
2022-12-26T00:07:52.228Z,-3.49
2022-12-26T00:10:19.096Z,-3.47
2022-12-26T00:12:45.855Z,-3.45
2022-12-26T00:15:12.599Z,-3.45
2022-12-26T00:17:39.425Z,-3.45
2022-12-26T00:20:06.605Z,-3.44
2022-12-26T00:22:34.489Z,-3.41
2022-12-26T00:25:01.228Z,-3.51
2022-12-26T00:27:29.903Z,-3.57
2022-12-26T00:29:56.758Z,-3.63
2022-12-26T00:32:23.584Z,-3.74
2022-12-26T00:34:50.337Z,-3.83
2022-12-26T00:37:17.085Z,-3.85
2022-12-26T00:39:43.905Z,-3.84
2022-12-26T00:42:10.996Z,-3.86
2022-12-26T00:44:37.703Z,-3.90
2022-12-26T00:47:04.490Z,-3.91
2022-12-26T00:50:13.764Z,-3.92
2022-12-26T00:52:18.105Z,-3.89
2022-12-26T00:54:44.912Z,-3.85
2022-12-26T00:57:11.897Z,-3.90
2022-12-26T00:59:38.657Z,-3.87
2022-12-26T01:02:25.440Z,-3.84
2022-12-26T01:04:52.373Z,-3.85
2022-12-26T01:07:19.161Z,-3.85
2022-12-26T01:09:45.937Z,-3.83
2022-12-26T01:12:12.739Z,-3.77
2022-12-26T01:14:39.530Z,-3.73
2022-12-26T01:17:06.289Z,-3.67
2022-12-26T01:19:32.971Z,-3.61
2022-12-26T01:21:59.747Z,-3.58
2022-12-26T01:24:26.522Z,-3.57
2022-12-26T01:26:53.261Z,-3.56
2022-12-26T01:29:20.101Z,-3.53
2022-12-26T01:31:46.982Z,-3.51
2022-12-26T01:34:15.031Z,-3.49
2022-12-26T01:36:41.716Z,-3.47
2022-12-26T01:39:08.713Z,-3.48
2022-12-26T01:41:35.527Z,-3.47
2022-12-26T01:44:06.592Z,-3.44
2022-12-26T01:46:35.944Z,-3.46
2022-12-26T01:49:11.742Z,-3.42
2022-12-26T01:51:41.383Z,-3.44
2022-12-26T01:54:39.856Z,-3.43
2022-12-26T01:56:58.373Z,-3.45
2022-12-26T01:59:28.417Z,-3.43
2022-12-26T02:01:55.719Z,-3.47
2022-12-26T02:04:54.598Z,-3.45
2022-12-26T02:07:22.277Z,-3.49
2022-12-26T02:09:49.274Z,-3.52
2022-12-26T02:12:34.834Z,-3.47
2022-12-26T02:15:24.721Z,-3.54
2022-12-26T02:17:51.472Z,-3.54
2022-12-26T02:20:28.114Z,-3.47
2022-12-26T02:23:15.655Z,-3.53
2022-12-26T02:26:00.596Z,-3.55
2022-12-26T02:28:53.237Z,-3.50
2022-12-26T02:32:00.084Z,-3.47
2022-12-26T02:35:09.840Z,-3.46
2022-12-26T02:38:16.385Z,-3.44
2022-12-26T02:40:51.887Z,-3.53
2022-12-26T02:43:42.617Z,-3.45
2022-12-26T02:46:44.353Z,-3.46
2022-12-26T02:49:25.982Z,-3.46
2022-12-26T02:52:24.724Z,-3.49
2022-12-26T02:55:10.066Z,-3.49
2022-12-26T02:58:04.495Z,-3.47
2022-12-26T03:00:52.250Z,-3.54
2022-12-26T03:03:41.008Z,-3.58
2022-12-26T03:06:37.384Z,-3.52
2022-12-26T03:09:27.572Z,-3.52
2022-12-26T03:12:22.280Z,-3.48
2022-12-26T03:14:53.887Z,-3.57
2022-12-26T03:17:53.159Z,-3.53
2022-12-26T03:20:33.061Z,-3.58
2022-12-26T03:23:07.977Z,-3.61
2022-12-26T03:26:02.998Z,-3.62
2022-12-26T03:28:30.371Z,-3.66
2022-12-26T03:31:02.031Z,-3.61
2022-12-26T03:33:50.982Z,-3.61
2022-12-26T03:36:43.701Z,-3.51
2022-12-26T03:39:51.473Z,-3.51
2022-12-26T03:43:04.499Z,-3.51
2022-12-26T03:46:15.970Z,-3.46
2022-12-26T03:49:28.262Z,-3.44
2022-12-26T03:52:38.177Z,-3.46
2022-12-26T03:55:45.182Z,-3.53
2022-12-26T03:59:03.763Z,-3.47
2022-12-26T04:01:52.685Z,-3.53
2022-12-26T04:04:40.983Z,-3.53
2022-12-26T04:07:58.256Z,-3.45
2022-12-26T04:10:55.830Z,-3.47
2022-12-26T04:13:48.639Z,-3.52
2022-12-26T04:16:59.984Z,-3.46
2022-12-26T04:20:05.615Z,-3.47
2022-12-26T04:23:23.508Z,-3.46
2022-12-26T04:26:16.499Z,-3.51
2022-12-26T04:29:01.733Z,-3.53
2022-12-26T04:31:52.922Z,-3.48
2022-12-26T04:34:45.890Z,-3.48
2022-12-26T04:37:41.588Z,-3.47
2022-12-26T04:40:33.886Z,-3.48
2022-12-26T04:43:48.208Z,-3.51
2022-12-26T04:46:08.572Z,-3.53
2022-12-26T04:49:02.149Z,-3.47
2022-12-26T04:51:28.878Z,-3.53
2022-12-26T04:53:55.672Z,-3.54
2022-12-26T04:56:22.473Z,-3.51
2022-12-26T04:58:49.309Z,-3.48
2022-12-26T05:01:34.643Z,-3.49
2022-12-26T05:04:20.036Z,-3.52
2022-12-26T05:07:05.270Z,-3.51
2022-12-26T05:09:34.812Z,-3.51
2022-12-26T05:12:09.272Z,-3.46
2022-12-26T05:14:36.806Z,-3.48
2022-12-26T05:17:23.838Z,-3.48
2022-12-26T05:20:09.491Z,-3.51
2022-12-26T05:23:01.468Z,-3.49
2022-12-26T05:25:54.341Z,-3.49
2022-12-26T05:28:40.055Z,-3.54
2022-12-26T05:31:07.236Z,-3.56
2022-12-26T05:33:52.498Z,-3.60
2022-12-26T05:36:21.671Z,-3.60
2022-12-26T05:38:49.065Z,-3.62
2022-12-26T05:41:16.441Z,-3.59
2022-12-26T05:43:43.318Z,-3.62
2022-12-26T05:46:10.187Z,-3.62
2022-12-26T05:48:36.962Z,-3.60
2022-12-26T05:51:04.809Z,-3.56
2022-12-26T05:53:32.783Z,-3.57
2022-12-26T05:56:08.024Z,-3.48
2022-12-26T05:58:34.756Z,-3.56
2022-12-26T06:01:16.781Z,-3.49
2022-12-26T06:03:47.779Z,-3.55
2022-12-26T06:06:15.096Z,-3.61
2022-12-26T06:08:42.197Z,-3.67
2022-12-26T06:11:12.597Z,-3.71
2022-12-26T06:13:40.985Z,-3.77
2022-12-26T06:16:13.757Z,-3.78
2022-12-26T06:18:41.403Z,-3.85
2022-12-26T06:21:13.770Z,-3.84
2022-12-26T06:23:40.845Z,-3.87
2022-12-26T06:26:10.428Z,-3.89
2022-12-26T06:28:38.346Z,-3.91
2022-12-26T06:31:20.755Z,-3.85
2022-12-26T06:33:49.875Z,-3.92
2022-12-26T06:36:19.918Z,-3.87
2022-12-26T06:38:47.065Z,-3.85
2022-12-26T06:41:16.854Z,-3.80
2022-12-26T06:43:43.711Z,-3.77
2022-12-26T06:46:14.713Z,-3.74
2022-12-26T06:48:41.670Z,-3.76
2022-12-26T06:51:12.830Z,-3.73
2022-12-26T06:53:39.670Z,-3.73
2022-12-26T06:56:11.969Z,-3.71
2022-12-26T06:58:38.922Z,-3.71
2022-12-26T07:01:13.972Z,-3.61
2022-12-26T07:03:48.554Z,-3.70
2022-12-26T07:06:25.669Z,-3.61
2022-12-26T07:08:54.347Z,-3.61
2022-12-26T07:11:24.162Z,-3.57
2022-12-26T07:13:51.755Z,-3.58
2022-12-26T07:16:18.536Z,-3.57
2022-12-26T07:18:45.402Z,-3.56
2022-12-26T07:21:14.609Z,-3.53
2022-12-26T07:23:41.890Z,-3.55
2022-12-26T07:26:09.283Z,-3.54
2022-12-26T07:28:36.067Z,-3.55
2022-12-26T07:31:03.995Z,-3.56
2022-12-26T07:33:30.798Z,-3.60
2022-12-26T07:36:01.100Z,-3.61
2022-12-26T07:38:27.926Z,-3.71
2022-12-26T07:40:58.306Z,-3.65
2022-12-26T07:43:26.038Z,-3.65
2022-12-26T07:45:53.009Z,-3.62
2022-12-26T07:48:19.792Z,-3.59
2022-12-26T07:50:47.415Z,-3.59
2022-12-26T07:53:15.208Z,-3.55
2022-12-26T07:55:42.682Z,-3.50
2022-12-26T07:58:09.553Z,-3.49
2022-12-26T08:00:36.328Z,-3.48
2022-12-26T08:03:07.443Z,-3.49
2022-12-26T08:05:34.903Z,-3.36
2022-12-26T08:08:01.816Z,-3.44
2022-12-26T08:10:28.645Z,-3.40
2022-12-26T08:12:55.640Z,-3.37
2022-12-26T08:15:22.554Z,-3.31
2022-12-26T08:17:49.262Z,-3.30
2022-12-26T08:20:16.155Z,-3.30
2022-12-26T08:22:42.874Z,-3.26
2022-12-26T08:25:10.110Z,-3.24
2022-12-26T08:27:37.031Z,-3.27
2022-12-26T08:30:05.038Z,-3.27
2022-12-26T08:32:31.908Z,-3.23
2022-12-26T08:34:58.692Z,-3.21
2022-12-26T08:37:25.524Z,-3.21
2022-12-26T08:39:53.647Z,-3.21
2022-12-26T08:42:21.479Z,-3.20
2022-12-26T08:44:48.793Z,-3.23
2022-12-26T08:47:15.963Z,-3.26
2022-12-26T08:49:42.722Z,-3.28
2022-12-26T08:52:09.720Z,-3.34
2022-12-26T08:54:36.507Z,-3.45
2022-12-26T08:57:03.302Z,-3.61
2022-12-26T08:59:30.097Z,-3.77
2022-12-26T09:01:56.969Z,-3.88
2022-12-26T09:04:23.821Z,-4.00
2022-12-26T09:06:50.654Z,-4.11
2022-12-26T09:09:17.608Z,-4.10
2022-12-26T09:11:44.577Z,-4.01
2022-12-26T09:14:11.867Z,-4.01
2022-12-26T09:16:50.347Z,-4.07
2022-12-26T09:19:19.518Z,-4.14
2022-12-26T09:21:47.773Z,-4.15
2022-12-26T09:24:17.299Z,-4.14
2022-12-26T09:26:44.628Z,-4.20
2022-12-26T09:29:12.933Z,-4.18
2022-12-26T09:31:39.813Z,-4.14
2022-12-26T09:34:07.188Z,-4.05
2022-12-26T09:36:38.164Z,-3.97
2022-12-26T09:39:05.506Z,-3.94
2022-12-26T09:41:38.173Z,-3.89
2022-12-26T09:44:13.759Z,-3.84
2022-12-26T09:46:48.772Z,-3.88
2022-12-26T09:49:27.405Z,-3.87
2022-12-26T09:51:58.867Z,-3.89
2022-12-26T09:54:37.465Z,-3.92
2022-12-26T09:57:18.408Z,-4.01
2022-12-26T09:59:55.563Z,-4.14
2022-12-26T10:02:25.465Z,-4.28
2022-12-26T10:04:54.758Z,-4.39
2022-12-26T10:07:34.102Z,-4.49
2022-12-26T10:10:28.234Z,-4.52
2022-12-26T10:13:06.225Z,-4.59
2022-12-26T10:15:46.481Z,-4.49
2022-12-26T10:18:31.658Z,-4.42
2022-12-26T10:21:26.321Z,-4.34
2022-12-26T10:23:58.910Z,-4.27
2022-12-26T10:26:31.754Z,-4.23
2022-12-26T10:29:18.301Z,-4.10
2022-12-26T10:31:50.867Z,-4.07
2022-12-26T10:34:24.109Z,-3.99
2022-12-26T10:37:01.278Z,-3.95
2022-12-26T10:39:38.461Z,-3.88
2022-12-26T10:42:38.395Z,-3.78
2022-12-26T10:45:45.277Z,-3.76
2022-12-26T10:48:16.341Z,-3.75
2022-12-26T10:50:49.213Z,-3.69
2022-12-26T10:53:17.216Z,-3.74
2022-12-26T10:55:44.567Z,-3.71
2022-12-26T10:58:30.934Z,-3.61
2022-12-26T11:01:17.747Z,-3.76
2022-12-26T11:04:02.798Z,-3.73
2022-12-26T11:06:41.838Z,-3.87
2022-12-26T11:09:28.644Z,-4.01
2022-12-26T11:11:55.763Z,-4.17
2022-12-26T11:14:34.059Z,-4.13
2022-12-26T11:17:28.755Z,-4.07
2022-12-26T11:20:10.787Z,-4.03
2022-12-26T11:22:38.468Z,-4.03
2022-12-26T11:25:10.978Z,-3.93
2022-12-26T11:27:41.445Z,-3.93
2022-12-26T11:30:14.130Z,-3.86
2022-12-26T11:32:42.951Z,-3.87
2022-12-26T11:35:26.152Z,-3.81
2022-12-26T11:37:56.222Z,-3.89
2022-12-26T11:40:37.060Z,-3.88
2022-12-26T11:43:07.585Z,-3.90
2022-12-26T11:45:42.571Z,-3.92
2022-12-26T11:48:24.732Z,-3.91
2022-12-26T11:50:52.389Z,-4.00
2022-12-26T11:53:22.102Z,-3.98
2022-12-26T11:56:08.715Z,-3.91
2022-12-26T11:58:36.120Z,-3.96
2022-12-26T12:01:06.460Z,-3.93
2022-12-26T12:03:48.635Z,-3.91
2022-12-26T12:06:53.006Z,-3.93
2022-12-26T12:09:25.606Z,-3.98
2022-12-26T12:12:29.351Z,-3.96
2022-12-26T12:15:03.420Z,-3.98
2022-12-26T12:17:39.374Z,-4.08
2022-12-26T12:20:50.266Z,-4.11
2022-12-26T12:23:21.109Z,-4.10
2022-12-26T12:26:03.855Z,-4.18
2022-12-26T12:28:50.850Z,-4.22
2022-12-26T12:31:31.145Z,-4.24
2022-12-26T12:34:06.794Z,-4.27
2022-12-26T12:36:51.218Z,-4.32
2022-12-26T12:39:30.867Z,-4.25
2022-12-26T12:42:06.376Z,-4.27
2022-12-26T12:44:56.535Z,-4.37
2022-12-26T12:48:19.246Z,-4.29
2022-12-26T12:50:57.753Z,-4.31
2022-12-26T12:53:46.072Z,-4.26
2022-12-26T12:56:43.861Z,-4.25
2022-12-26T12:59:42.963Z,-4.38
2022-12-26T13:02:29.290Z,-4.49
2022-12-26T13:05:25.582Z,-4.52
2022-12-26T13:08:08.247Z,-4.52
2022-12-26T13:10:42.664Z,-4.54
2022-12-26T13:13:38.613Z,-4.47
2022-12-26T13:16:13.051Z,-4.49
2022-12-26T13:18:49.331Z,-4.49
2022-12-26T13:21:16.923Z,-4.53
2022-12-26T13:24:11.526Z,-4.52
2022-12-26T13:26:43.594Z,-4.62
2022-12-26T13:29:19.380Z,-4.66
2022-12-26T13:31:46.765Z,-4.73
2022-12-26T13:34:18.734Z,-4.71
2022-12-26T13:36:51.276Z,-4.77
2022-12-26T13:39:23.931Z,-4.77
2022-12-26T13:42:18.940Z,-4.81
2022-12-26T13:44:50.009Z,-4.83
2022-12-26T13:47:36.490Z,-4.75
2022-12-26T13:50:40.609Z,-4.73
2022-12-26T13:53:37.281Z,-4.68
2022-12-26T13:56:19.296Z,-4.72
2022-12-26T13:58:47.355Z,-4.73
2022-12-26T14:01:38.148Z,-4.80
2022-12-26T14:04:37.941Z,-4.84
2022-12-26T14:07:25.574Z,-4.85
2022-12-26T14:10:04.127Z,-4.84
2022-12-26T14:13:09.160Z,-4.89
2022-12-26T14:15:58.079Z,-4.82
2022-12-26T14:18:33.561Z,-4.88
2022-12-26T14:21:21.389Z,-4.91
2022-12-26T14:23:54.458Z,-4.92
2022-12-26T14:26:28.760Z,-4.88
2022-12-26T14:29:16.691Z,-4.75
2022-12-26T14:31:43.393Z,-4.78
2022-12-26T14:34:43.611Z,-4.68
2022-12-26T14:37:16.118Z,-4.73
2022-12-26T14:40:16.760Z,-4.63
2022-12-26T14:43:35.948Z,-4.58
2022-12-26T14:46:22.872Z,-4.69
2022-12-26T14:48:54.623Z,-4.70
2022-12-26T14:51:21.346Z,-4.75
2022-12-26T14:54:24.787Z,-4.73
2022-12-26T14:56:52.767Z,-4.87
2022-12-26T14:59:25.630Z,-4.88
2022-12-26T15:02:10.511Z,-4.82
2022-12-26T15:04:37.289Z,-4.87
2022-12-26T15:07:36.111Z,-4.80
2022-12-26T15:10:14.709Z,-4.82
2022-12-26T15:13:02.964Z,-4.77
2022-12-26T15:15:57.469Z,-4.81
2022-12-26T15:18:42.626Z,-4.84
2022-12-26T15:21:32.951Z,-4.80
2022-12-26T15:25:18.134Z,-4.77
2022-12-26T15:27:51.843Z,-4.90
2022-12-26T15:30:36.707Z,-4.87
2022-12-26T15:33:15.574Z,-4.94
2022-12-26T15:36:03.386Z,-4.95
2022-12-26T15:39:06.004Z,-4.92
2022-12-26T15:41:45.763Z,-4.94
2022-12-26T15:44:18.098Z,-5.00
2022-12-26T15:47:02.055Z,-4.99
2022-12-26T15:49:36.933Z,-5.12
2022-12-26T15:52:19.059Z,-5.11
2022-12-26T15:54:51.503Z,-5.13
2022-12-26T15:57:32.035Z,-5.12
2022-12-26T16:00:04.616Z,-5.15
2022-12-26T16:02:35.579Z,-5.25
2022-12-26T16:05:11.618Z,-5.32
2022-12-26T16:07:47.783Z,-5.46
2022-12-26T16:10:32.173Z,-5.51
2022-12-26T16:13:03.441Z,-5.59
2022-12-26T16:15:33.006Z,-5.64
2022-12-26T16:18:19.518Z,-5.60
2022-12-26T16:21:06.864Z,-5.66
2022-12-26T16:23:40.072Z,-5.67
2022-12-26T16:26:07.614Z,-5.65
2022-12-26T16:28:39.345Z,-5.59
2022-12-26T16:31:06.747Z,-5.49
2022-12-26T16:33:43.223Z,-5.59
2022-12-26T16:36:16.083Z,-5.65
2022-12-26T16:38:44.545Z,-5.69
2022-12-26T16:41:26.327Z,-5.68
2022-12-26T16:43:55.379Z,-5.78
2022-12-26T16:46:28.883Z,-5.78
2022-12-26T16:48:58.828Z,-5.81
2022-12-26T16:51:46.891Z,-5.78
2022-12-26T16:54:19.714Z,-5.82
2022-12-26T16:57:21.014Z,-5.80
2022-12-26T16:59:58.134Z,-5.84
2022-12-26T17:02:29.706Z,-5.83
2022-12-26T17:05:06.765Z,-5.81
2022-12-26T17:07:36.995Z,-5.82
2022-12-26T17:10:07.058Z,-5.78
2022-12-26T17:12:39.362Z,-5.70
2022-12-26T17:15:07.382Z,-5.70
2022-12-26T17:17:38.801Z,-5.74
2022-12-26T17:20:23.838Z,-5.78
2022-12-26T17:22:55.703Z,-5.85
2022-12-26T17:25:27.919Z,-5.80
2022-12-26T17:28:09.917Z,-5.84
2022-12-26T17:30:37.714Z,-5.81
2022-12-26T17:33:28.464Z,-5.81
2022-12-26T17:38:54.466Z,-5.86
2022-12-26T17:41:21.253Z,-5.83
2022-12-26T17:43:48.242Z,-5.86
2022-12-26T17:46:17.684Z,-5.88
2022-12-26T17:48:45.599Z,-5.88
2022-12-26T17:51:16.498Z,-5.89
2022-12-26T17:53:48.537Z,-5.90
2022-12-26T17:56:16.909Z,-5.89
2022-12-26T17:58:44.058Z,-5.87
2022-12-26T18:01:13.689Z,-5.86
2022-12-26T18:03:44.578Z,-5.85
2022-12-26T18:06:16.557Z,-5.84
2022-12-26T18:08:44.631Z,-5.85
2022-12-26T18:11:13.996Z,-5.89
2022-12-26T18:13:41.300Z,-5.91
2022-12-26T18:16:11.566Z,-5.90
2022-12-26T18:18:41.191Z,-5.87
2022-12-26T18:21:10.155Z,-5.87
2022-12-26T18:23:37.768Z,-5.87
2022-12-26T18:26:07.983Z,-5.85
2022-12-26T18:28:35.554Z,-5.83
2022-12-26T18:31:02.402Z,-5.81
2022-12-26T18:33:29.153Z,-5.77
2022-12-26T18:35:56.443Z,-5.76
2022-12-26T18:38:23.237Z,-5.76
2022-12-26T18:40:54.713Z,-5.75
2022-12-26T18:43:21.521Z,-5.75
2022-12-26T18:45:48.331Z,-5.75
2022-12-26T18:48:16.839Z,-5.75
2022-12-26T18:50:43.971Z,-5.76
2022-12-26T18:53:11.366Z,-5.74
2022-12-26T18:55:38.999Z,-5.76
2022-12-26T18:58:06.504Z,-5.78
2022-12-26T19:00:33.290Z,-5.81
2022-12-26T19:03:00.071Z,-5.85
2022-12-26T19:05:31.164Z,-5.85
2022-12-26T19:07:59.130Z,-5.89
2022-12-26T19:10:29.581Z,-5.89
2022-12-26T19:13:02.886Z,-5.91
2022-12-26T19:15:36.328Z,-5.90
2022-12-26T19:18:04.574Z,-5.89
2022-12-26T19:20:31.467Z,-5.91
2022-12-26T19:22:58.325Z,-5.91
2022-12-26T19:25:25.939Z,-5.93
2022-12-26T19:27:53.575Z,-5.92
2022-12-26T19:30:21.696Z,-5.87
2022-12-26T19:32:49.786Z,-5.83
2022-12-26T19:35:17.340Z,-5.80
2022-12-26T19:37:44.650Z,-5.83
2022-12-26T19:40:12.669Z,-5.87
2022-12-26T19:42:39.757Z,-5.86
2022-12-26T19:45:09.556Z,-5.84
2022-12-26T19:47:36.928Z,-5.86
2022-12-26T19:50:05.378Z,-5.82
2022-12-26T19:52:32.582Z,-5.84
2022-12-26T19:54:59.436Z,-5.81
2022-12-26T19:57:26.295Z,-5.79
2022-12-26T19:59:53.105Z,-5.83
2022-12-26T20:02:20.107Z,-5.85
2022-12-26T20:04:46.959Z,-5.82
2022-12-26T20:07:13.786Z,-5.80
2022-12-26T20:09:40.567Z,-5.80
2022-12-26T20:12:07.459Z,-5.78
2022-12-26T20:14:34.403Z,-5.78
2022-12-26T20:17:06.036Z,-5.74
2022-12-26T20:19:34.267Z,-5.71
2022-12-26T20:22:01.049Z,-5.67
2022-12-26T20:24:27.860Z,-5.66
2022-12-26T20:26:54.649Z,-5.70
2022-12-26T20:29:21.752Z,-5.76
2022-12-26T20:31:49.468Z,-5.81
2022-12-26T20:34:16.607Z,-5.79
2022-12-26T20:36:43.524Z,-5.76
2022-12-26T20:39:16.528Z,-5.69
2022-12-26T20:41:43.671Z,-5.66
2022-12-26T20:44:13.297Z,-5.65
2022-12-26T20:46:41.162Z,-5.72
2022-12-26T20:49:08.070Z,-5.76
2022-12-26T20:51:37.816Z,-5.80
2022-12-26T20:54:06.886Z,-5.81
2022-12-26T20:56:34.710Z,-5.82
2022-12-26T20:59:01.659Z,-5.87
2022-12-26T21:01:29.120Z,-5.88
2022-12-26T21:03:57.459Z,-5.85
2022-12-26T21:06:27.759Z,-5.80
2022-12-26T21:08:56.406Z,-5.76
2022-12-26T21:11:36.102Z,-5.72
2022-12-26T21:14:10.524Z,-5.79
2022-12-26T21:16:40.520Z,-5.85
2022-12-26T21:19:12.537Z,-5.90
2022-12-26T21:21:44.337Z,-5.96
2022-12-26T21:24:20.167Z,-5.99
2022-12-26T21:26:47.544Z,-6.01
2022-12-26T21:29:18.488Z,-6.00
2022-12-26T21:31:45.905Z,-6.03
2022-12-26T21:34:15.575Z,-6.02
2022-12-26T21:37:03.347Z,-6.08
2022-12-26T21:39:30.756Z,-6.12
2022-12-26T21:41:57.807Z,-6.13
2022-12-26T21:44:24.617Z,-6.17
2022-12-26T21:46:51.389Z,-6.18
2022-12-26T21:49:18.278Z,-6.20
2022-12-26T21:51:45.016Z,-6.16
2022-12-26T21:54:30.320Z,-6.12
2022-12-26T21:56:57.068Z,-6.13
2022-12-26T21:59:42.469Z,-6.13
2022-12-26T22:02:33.634Z,-6.10
2022-12-26T22:05:01.697Z,-6.22
2022-12-26T22:07:28.934Z,-6.31
2022-12-26T22:09:55.710Z,-6.31
2022-12-26T22:12:41.099Z,-6.31
2022-12-26T22:15:31.258Z,-6.29
2022-12-26T22:17:58.153Z,-6.23
2022-12-26T22:20:25.438Z,-6.21
2022-12-26T22:22:52.299Z,-6.21
2022-12-26T22:25:19.901Z,-6.21
2022-12-26T22:27:46.720Z,-6.25
2022-12-26T22:30:13.613Z,-6.34
2022-12-26T22:32:40.519Z,-6.45
2022-12-26T22:35:11.854Z,-6.45
2022-12-26T22:37:41.584Z,-6.48
2022-12-26T22:40:08.942Z,-6.50
2022-12-26T22:42:35.690Z,-6.55
2022-12-26T22:45:02.436Z,-6.61
2022-12-26T22:47:30.549Z,-6.70
2022-12-26T22:49:57.312Z,-6.74
2022-12-26T22:52:24.112Z,-6.77
2022-12-26T22:54:50.832Z,-6.82
2022-12-26T22:57:17.595Z,-6.88
2022-12-26T23:00:11.388Z,-6.87
2022-12-26T23:02:31.972Z,-6.89
2022-12-26T23:04:59.113Z,-6.90
2022-12-26T23:07:26.047Z,-6.88
2022-12-26T23:09:53.144Z,-6.85
2022-12-26T23:12:38.830Z,-6.86
2022-12-26T23:15:06.274Z,-6.88
2022-12-26T23:17:55.987Z,-6.83
2022-12-26T23:20:45.184Z,-6.82
2022-12-26T23:23:12.226Z,-6.80
2022-12-26T23:25:39.674Z,-6.82
2022-12-26T23:28:25.074Z,-6.91
2022-12-26T23:30:51.972Z,-6.99
2022-12-26T23:33:18.782Z,-7.01
2022-12-26T23:35:45.517Z,-7.04
2022-12-26T23:38:12.209Z,-7.06
2022-12-26T23:40:38.956Z,-7.05
2022-12-26T23:43:05.737Z,-7.05
2022-12-26T23:45:32.440Z,-7.04
2022-12-26T23:47:59.177Z,-7.04
2022-12-26T23:50:25.946Z,-7.05
2022-12-26T23:52:52.652Z,-7.06
2022-12-26T23:55:19.432Z,-7.06
2022-12-26T23:57:46.340Z,-7.14
